sensor_id;sensor_type;location;lat;lon;timestamp;P1;P2;P0
70243;PMS7003;57634;51.136;17.024;2022-09-09T00:00:13;3;3;2
70243;PMS7003;57634;51.136;17.024;2022-09-09T00:03:26;4;4;2
70243;PMS7003;57634;51.136;17.024;2022-09-09T00:06:42;5;3;2
70243;PMS7003;57634;51.136;17.024;2022-09-09T00:10:15;4;3;2
70243;PMS7003;57634;51.136;17.024;2022-09-09T00:16:39;4;4;2
70243;PMS7003;57634;51.136;17.024;2022-09-09T00:19:47;5;3;2
70243;PMS7003;57634;51.136;17.024;2022-09-09T00:23:06;4;4;3
70243;PMS7003;57634;51.136;17.024;2022-09-09T00:26:38;4;3;2
70243;PMS7003;57634;51.136;17.024;2022-09-09T00:29:53;4;4;2
70243;PMS7003;57634;51.136;17.024;2022-09-09T00:33:01;3;3;2
70243;PMS7003;57634;51.136;17.024;2022-09-09T00:36:17;4;4;3
70243;PMS7003;57634;51.136;17.024;2022-09-09T00:46:29;4;4;2
70243;PMS7003;57634;51.136;17.024;2022-09-09T00:49:41;5;5;3
70243;PMS7003;57634;51.136;17.024;2022-09-09T00:59:46;4;4;2
70243;PMS7003;57634;51.136;17.024;2022-09-09T01:09:22;3;3;2
70243;PMS7003;57634;51.136;17.024;2022-09-09T01:12:56;3;3;2
70243;PMS7003;57634;51.136;17.024;2022-09-09T01:16:03;3;2;2
70243;PMS7003;57634;51.136;17.024;2022-09-09T01:19:07;4;2;2
70243;PMS7003;57634;51.136;17.024;2022-09-09T01:29:17;3;3;2
70243;PMS7003;57634;51.136;17.024;2022-09-09T01:38:47;5;5;4
70243;PMS7003;57634;51.136;17.024;2022-09-09T01:41:51;4;4;2
70243;PMS7003;57634;51.136;17.024;2022-09-09T01:44:53;3;3;2
70243;PMS7003;57634;51.136;17.024;2022-09-09T01:48:22;3;3;2
70243;PMS7003;57634;51.136;17.024;2022-09-09T01:51:25;4;4;3
70243;PMS7003;57634;51.136;17.024;2022-09-09T01:54:28;2;2;2
70243;PMS7003;57634;51.136;17.024;2022-09-09T01:57:40;3;3;2
70243;PMS7003;57634;51.136;17.024;2022-09-09T02:00:54;3;3;2
70243;PMS7003;57634;51.136;17.024;2022-09-09T02:04:09;3;3;3
70243;PMS7003;57634;51.136;17.024;2022-09-09T02:07:47;5;5;3
70243;PMS7003;57634;51.136;17.024;2022-09-09T02:10:53;5;4;3
70243;PMS7003;57634;51.136;17.024;2022-09-09T02:14:02;3;3;2
70243;PMS7003;57634;51.136;17.024;2022-09-09T02:17:11;2;2;2
70243;PMS7003;57634;51.136;17.024;2022-09-09T02:20:16;4;4;3
70243;PMS7003;57634;51.136;17.024;2022-09-09T02:23:20;3;3;2
70243;PMS7003;57634;51.136;17.024;2022-09-09T02:26:22;5;5;3
70243;PMS7003;57634;51.136;17.024;2022-09-09T02:29:51;5;3;2
70243;PMS7003;57634;51.136;17.024;2022-09-09T02:32:56;3;3;2
70243;PMS7003;57634;51.136;17.024;2022-09-09T02:36:00;4;4;3
70243;PMS7003;57634;51.136;17.024;2022-09-09T02:39:07;4;3;2
70243;PMS7003;57634;51.136;17.024;2022-09-09T02:42:10;4;3;3
70243;PMS7003;57634;51.136;17.024;2022-09-09T02:45:13;4;4;3
70243;PMS7003;57634;51.136;17.024;2022-09-09T02:52:01;4;3;2
70243;PMS7003;57634;51.136;17.024;2022-09-09T02:55:12;3;3;2
70243;PMS7003;57634;51.136;17.024;2022-09-09T02:58:19;3;3;2
70243;PMS7003;57634;51.136;17.024;2022-09-09T03:01:20;3;3;2
70243;PMS7003;57634;51.136;17.024;2022-09-09T03:04:22;3;3;2
70243;PMS7003;57634;51.136;17.024;2022-09-09T03:07:25;3;3;2
70243;PMS7003;57634;51.136;17.024;2022-09-09T03:10:28;0;0;0
70243;PMS7003;57634;51.136;17.024;2022-09-09T03:13:29;4;4;3
70243;PMS7003;57634;51.136;17.024;2022-09-09T03:16:31;3;3;2
70243;PMS7003;57634;51.136;17.024;2022-09-09T03:20:03;3;3;2
70243;PMS7003;57634;51.136;17.024;2022-09-09T03:23:05;4;4;3
70243;PMS7003;57634;51.136;17.024;2022-09-09T03:26:07;5;5;3
70243;PMS7003;57634;51.136;17.024;2022-09-09T03:29:08;4;3;2
70243;PMS7003;57634;51.136;17.024;2022-09-09T03:32:09;4;4;3
70243;PMS7003;57634;51.136;17.024;2022-09-09T03:35:11;4;4;3
70243;PMS7003;57634;51.136;17.024;2022-09-09T03:38:12;3;3;2
70243;PMS7003;57634;51.136;17.024;2022-09-09T03:41:14;5;4;3
70243;PMS7003;57634;51.136;17.024;2022-09-09T03:44:15;5;5;4
70243;PMS7003;57634;51.136;17.024;2022-09-09T03:47:17;6;6;3
70243;PMS7003;57634;51.136;17.024;2022-09-09T03:50:19;4;4;2
70243;PMS7003;57634;51.136;17.024;2022-09-09T03:53:23;5;5;4
70243;PMS7003;57634;51.136;17.024;2022-09-09T03:56:25;5;4;3
70243;PMS7003;57634;51.136;17.024;2022-09-09T03:59:54;4;4;3
70243;PMS7003;57634;51.136;17.024;2022-09-09T04:02:56;5;5;4
70243;PMS7003;57634;51.136;17.024;2022-09-09T04:05:59;4;4;2
70243;PMS7003;57634;51.136;17.024;2022-09-09T04:09:03;4;4;3
70243;PMS7003;57634;51.136;17.024;2022-09-09T04:12:04;6;5;3
70243;PMS7003;57634;51.136;17.024;2022-09-09T04:15:07;5;4;3
70243;PMS7003;57634;51.136;17.024;2022-09-09T04:18:09;4;4;3
70243;PMS7003;57634;51.136;17.024;2022-09-09T04:21:10;4;4;4
70243;PMS7003;57634;51.136;17.024;2022-09-09T04:24:13;6;5;4
70243;PMS7003;57634;51.136;17.024;2022-09-09T04:27:16;4;4;3
70243;PMS7003;57634;51.136;17.024;2022-09-09T04:30:17;4;4;2
70243;PMS7003;57634;51.136;17.024;2022-09-09T04:33:19;4;4;3
70243;PMS7003;57634;51.136;17.024;2022-09-09T04:36:48;3;3;2
70243;PMS7003;57634;51.136;17.024;2022-09-09T04:39:50;4;4;3
70243;PMS7003;57634;51.136;17.024;2022-09-09T04:42:51;3;3;2
70243;PMS7003;57634;51.136;17.024;2022-09-09T04:45:52;3;3;2
70243;PMS7003;57634;51.136;17.024;2022-09-09T04:48:54;4;3;2
70243;PMS7003;57634;51.136;17.024;2022-09-09T04:51:56;3;3;2
70243;PMS7003;57634;51.136;17.024;2022-09-09T04:54:57;3;3;2
70243;PMS7003;57634;51.136;17.024;2022-09-09T04:58:02;5;3;2
70243;PMS7003;57634;51.136;17.024;2022-09-09T05:01:10;3;3;2
70243;PMS7003;57634;51.136;17.024;2022-09-09T05:04:14;4;4;2
70243;PMS7003;57634;51.136;17.024;2022-09-09T05:07:16;3;3;2
70243;PMS7003;57634;51.136;17.024;2022-09-09T05:10:44;4;4;3
70243;PMS7003;57634;51.136;17.024;2022-09-09T05:13:45;4;3;2
70243;PMS7003;57634;51.136;17.024;2022-09-09T05:16:47;3;3;2
70243;PMS7003;57634;51.136;17.024;2022-09-09T05:19:50;3;3;3
70243;PMS7003;57634;51.136;17.024;2022-09-09T05:22:55;2;2;2
70243;PMS7003;57634;51.136;17.024;2022-09-09T05:25:58;3;2;2
70243;PMS7003;57634;51.136;17.024;2022-09-09T05:28:59;2;2;2
70243;PMS7003;57634;51.136;17.024;2022-09-09T05:32:01;2;2;1
70243;PMS7003;57634;51.136;17.024;2022-09-09T05:35:03;1;1;1
70243;PMS7003;57634;51.136;17.024;2022-09-09T05:38:05;2;2;1
70243;PMS7003;57634;51.136;17.024;2022-09-09T05:41:09;3;2;1
70243;PMS7003;57634;51.136;17.024;2022-09-09T05:44:12;1;1;0
70243;PMS7003;57634;51.136;17.024;2022-09-09T05:47:39;2;2;1
70243;PMS7003;57634;51.136;17.024;2022-09-09T05:50:41;3;2;2
70243;PMS7003;57634;51.136;17.024;2022-09-09T05:53:45;2;2;1
70243;PMS7003;57634;51.136;17.024;2022-09-09T05:56:46;3;2;1
70243;PMS7003;57634;51.136;17.024;2022-09-09T05:59:51;3;2;1
70243;PMS7003;57634;51.136;17.024;2022-09-09T06:02:52;2;2;1
70243;PMS7003;57634;51.136;17.024;2022-09-09T06:09:03;1;1;1
70243;PMS7003;57634;51.136;17.024;2022-09-09T06:12:10;2;2;1
70243;PMS7003;57634;51.136;17.024;2022-09-09T06:15:13;3;2;2
70243;PMS7003;57634;51.136;17.024;2022-09-09T06:18:40;2;2;1
70243;PMS7003;57634;51.136;17.024;2022-09-09T06:21:42;1;1;1
70243;PMS7003;57634;51.136;17.024;2022-09-09T06:24:45;1;1;0
70243;PMS7003;57634;51.136;17.024;2022-09-09T06:27:49;1;1;1
70243;PMS7003;57634;51.136;17.024;2022-09-09T06:30:57;1;1;0
70243;PMS7003;57634;51.136;17.024;2022-09-09T06:34:03;1;1;1
70243;PMS7003;57634;51.136;17.024;2022-09-09T06:37:06;1;0;0
70243;PMS7003;57634;51.136;17.024;2022-09-09T06:40:10;0;0;0
70243;PMS7003;57634;51.136;17.024;2022-09-09T06:43:12;1;1;1
70243;PMS7003;57634;51.136;17.024;2022-09-09T06:46:14;0;0;0
70243;PMS7003;57634;51.136;17.024;2022-09-09T06:49:42;1;0;0
70243;PMS7003;57634;51.136;17.024;2022-09-09T06:52:45;0;0;0
70243;PMS7003;57634;51.136;17.024;2022-09-09T06:55:48;0;0;0
70243;PMS7003;57634;51.136;17.024;2022-09-09T06:58:50;0;0;0
70243;PMS7003;57634;51.136;17.024;2022-09-09T07:01:52;0;0;0
70243;PMS7003;57634;51.136;17.024;2022-09-09T07:04:55;0;0;0
70243;PMS7003;57634;51.136;17.024;2022-09-09T07:07:59;1;0;0
70243;PMS7003;57634;51.136;17.024;2022-09-09T07:11:03;0;0;0
70243;PMS7003;57634;51.136;17.024;2022-09-09T07:14:08;0;0;0
70243;PMS7003;57634;51.136;17.024;2022-09-09T07:17:12;0;0;0
70243;PMS7003;57634;51.136;17.024;2022-09-09T07:20:14;0;0;0
70243;PMS7003;57634;51.136;17.024;2022-09-09T07:23:41;0;0;0
70243;PMS7003;57634;51.136;17.024;2022-09-09T07:26:43;0;0;0
70243;PMS7003;57634;51.136;17.024;2022-09-09T07:29:46;0;0;0
70243;PMS7003;57634;51.136;17.024;2022-09-09T07:32:47;0;0;0
70243;PMS7003;57634;51.136;17.024;2022-09-09T07:35:49;0;0;0
70243;PMS7003;57634;51.136;17.024;2022-09-09T07:38:52;0;0;0
70243;PMS7003;57634;51.136;17.024;2022-09-09T07:41:56;0;0;0
70243;PMS7003;57634;51.136;17.024;2022-09-09T07:44:58;0;0;0
70243;PMS7003;57634;51.136;17.024;2022-09-09T07:48:00;0;0;0
70243;PMS7003;57634;51.136;17.024;2022-09-09T07:51:03;0;0;0
70243;PMS7003;57634;51.136;17.024;2022-09-09T07:54:12;0;0;0
70243;PMS7003;57634;51.136;17.024;2022-09-09T07:57:44;0;0;0
70243;PMS7003;57634;51.136;17.024;2022-09-09T08:00:45;0;0;0
70243;PMS7003;57634;51.136;17.024;2022-09-09T08:03:51;0;0;0
70243;PMS7003;57634;51.136;17.024;2022-09-09T08:07:02;0;0;0
70243;PMS7003;57634;51.136;17.024;2022-09-09T08:10:04;0;0;0
70243;PMS7003;57634;51.136;17.024;2022-09-09T08:13:06;0;0;0
70243;PMS7003;57634;51.136;17.024;2022-09-09T08:16:10;0;0;0
70243;PMS7003;57634;51.136;17.024;2022-09-09T08:19:14;0;0;0
70243;PMS7003;57634;51.136;17.024;2022-09-09T08:22:18;0;0;0
70243;PMS7003;57634;51.136;17.024;2022-09-09T08:25:46;0;0;0
70243;PMS7003;57634;51.136;17.024;2022-09-09T08:28:51;0;0;0
70243;PMS7003;57634;51.136;17.024;2022-09-09T08:31:54;0;0;0
70243;PMS7003;57634;51.136;17.024;2022-09-09T08:34:57;0;0;0
70243;PMS7003;57634;51.136;17.024;2022-09-09T08:37:59;0;0;0
70243;PMS7003;57634;51.136;17.024;2022-09-09T08:47:34;0;0;0
70243;PMS7003;57634;51.136;17.024;2022-09-09T08:51:05;0;0;0
70243;PMS7003;57634;51.136;17.024;2022-09-09T08:54:09;0;0;0
70243;PMS7003;57634;51.136;17.024;2022-09-09T08:57:12;0;0;0
70243;PMS7003;57634;51.136;17.024;2022-09-09T09:00:17;0;0;0
70243;PMS7003;57634;51.136;17.024;2022-09-09T09:06:45;0;0;0
70243;PMS7003;57634;51.136;17.024;2022-09-09T09:12:59;0;0;0
70243;PMS7003;57634;51.136;17.024;2022-09-09T09:16:31;0;0;0
70243;PMS7003;57634;51.136;17.024;2022-09-09T09:19:38;0;0;0
70243;PMS7003;57634;51.136;17.024;2022-09-09T09:22:44;0;0;0
70243;PMS7003;57634;51.136;17.024;2022-09-09T09:25:52;0;0;0
70243;PMS7003;57634;51.136;17.024;2022-09-09T09:29:00;0;0;0
70243;PMS7003;57634;51.136;17.024;2022-09-09T09:32:11;0;0;0
70243;PMS7003;57634;51.136;17.024;2022-09-09T09:35:17;0;0;0
70243;PMS7003;57634;51.136;17.024;2022-09-09T09:41:57;0;0;0
70243;PMS7003;57634;51.136;17.024;2022-09-09T09:48:15;0;0;0
70243;PMS7003;57634;51.136;17.024;2022-09-09T09:51:16;0;0;0
70243;PMS7003;57634;51.136;17.024;2022-09-09T09:58:05;0;0;0
70243;PMS7003;57634;51.136;17.024;2022-09-09T10:01:18;0;0;0
70243;PMS7003;57634;51.136;17.024;2022-09-09T10:04:21;0;0;0
70243;PMS7003;57634;51.136;17.024;2022-09-09T10:07:27;0;0;0
70243;PMS7003;57634;51.136;17.024;2022-09-09T10:10:35;0;0;0
70243;PMS7003;57634;51.136;17.024;2022-09-09T10:20:51;0;0;0
70243;PMS7003;57634;51.136;17.024;2022-09-09T10:30:57;0;0;0
70243;PMS7003;57634;51.136;17.024;2022-09-09T10:37:19;0;0;0
70243;PMS7003;57634;51.136;17.024;2022-09-09T10:51:21;0;0;0
70243;PMS7003;57634;51.136;17.024;2022-09-09T10:57:35;0;0;0
70243;PMS7003;57634;51.136;17.024;2022-09-09T11:00:42;0;0;0
70243;PMS7003;57634;51.136;17.024;2022-09-09T11:03:47;0;0;0
70243;PMS7003;57634;51.136;17.024;2022-09-09T11:06:59;0;0;0
70243;PMS7003;57634;51.136;17.024;2022-09-09T11:10:36;0;0;0
70243;PMS7003;57634;51.136;17.024;2022-09-09T11:20:13;0;0;0
70243;PMS7003;57634;51.136;17.024;2022-09-09T11:23:17;0;0;0
70243;PMS7003;57634;51.136;17.024;2022-09-09T11:26:52;0;0;0
70243;PMS7003;57634;51.136;17.024;2022-09-09T11:46:36;0;0;0
70243;PMS7003;57634;51.136;17.024;2022-09-09T11:49:40;0;0;0
70243;PMS7003;57634;51.136;17.024;2022-09-09T11:52:44;0;0;0
70243;PMS7003;57634;51.136;17.024;2022-09-09T11:55:47;0;0;0
70243;PMS7003;57634;51.136;17.024;2022-09-09T11:59:21;0;0;0
70243;PMS7003;57634;51.136;17.024;2022-09-09T12:02:26;0;0;0
70243;PMS7003;57634;51.136;17.024;2022-09-09T12:05:36;0;0;0
70243;PMS7003;57634;51.136;17.024;2022-09-09T12:08:43;0;0;0
70243;PMS7003;57634;51.136;17.024;2022-09-09T12:11:48;0;0;0
70243;PMS7003;57634;51.136;17.024;2022-09-09T12:17:59;0;0;0
70243;PMS7003;57634;51.136;17.024;2022-09-09T12:28:04;0;0;0
70243;PMS7003;57634;51.136;17.024;2022-09-09T12:31:15;0;0;0
70243;PMS7003;57634;51.136;17.024;2022-09-09T12:34:49;0;0;0
70243;PMS7003;57634;51.136;17.024;2022-09-09T12:38:00;0;0;0
70243;PMS7003;57634;51.136;17.024;2022-09-09T12:41:03;0;0;0
70243;PMS7003;57634;51.136;17.024;2022-09-09T12:44:06;0;0;0
70243;PMS7003;57634;51.136;17.024;2022-09-09T12:47:10;0;0;0
70243;PMS7003;57634;51.136;17.024;2022-09-09T12:50:32;0;0;0
70243;PMS7003;57634;51.136;17.024;2022-09-09T12:53:28;0;0;0
70243;PMS7003;57634;51.136;17.024;2022-09-09T12:57:03;0;0;0
70243;PMS7003;57634;51.136;17.024;2022-09-09T13:00:15;0;0;0
70243;PMS7003;57634;51.136;17.024;2022-09-09T13:03:16;0;0;0
70243;PMS7003;57634;51.136;17.024;2022-09-09T13:06:24;0;0;0
70243;PMS7003;57634;51.136;17.024;2022-09-09T13:09:30;0;0;0
70243;PMS7003;57634;51.136;17.024;2022-09-09T13:12:32;0;0;0
70243;PMS7003;57634;51.136;17.024;2022-09-09T13:15:33;0;0;0
70243;PMS7003;57634;51.136;17.024;2022-09-09T13:18:35;0;0;0
70243;PMS7003;57634;51.136;17.024;2022-09-09T13:25:23;0;0;0
70243;PMS7003;57634;51.136;17.024;2022-09-09T13:28:28;0;0;0
70243;PMS7003;57634;51.136;17.024;2022-09-09T13:31:33;0;0;0
70243;PMS7003;57634;51.136;17.024;2022-09-09T13:34:37;0;0;0
70243;PMS7003;57634;51.136;17.024;2022-09-09T13:37:39;0;0;0
70243;PMS7003;57634;51.136;17.024;2022-09-09T13:44:24;0;0;0
70243;PMS7003;57634;51.136;17.024;2022-09-09T13:47:30;0;0;0
70243;PMS7003;57634;51.136;17.024;2022-09-09T13:50:35;0;0;0
70243;PMS7003;57634;51.136;17.024;2022-09-09T13:53:36;0;0;0
70243;PMS7003;57634;51.136;17.024;2022-09-09T13:56:37;0;0;0
70243;PMS7003;57634;51.136;17.024;2022-09-09T13:59:40;0;0;0
70243;PMS7003;57634;51.136;17.024;2022-09-09T14:02:42;0;0;0
70243;PMS7003;57634;51.136;17.024;2022-09-09T14:05:44;0;0;0
70243;PMS7003;57634;51.136;17.024;2022-09-09T14:08:47;0;0;0
70243;PMS7003;57634;51.136;17.024;2022-09-09T14:11:50;0;0;0
70243;PMS7003;57634;51.136;17.024;2022-09-09T14:14:52;0;0;0
70243;PMS7003;57634;51.136;17.024;2022-09-09T14:18:19;0;0;0
70243;PMS7003;57634;51.136;17.024;2022-09-09T14:21:23;0;0;0
70243;PMS7003;57634;51.136;17.024;2022-09-09T14:24:26;0;0;0
70243;PMS7003;57634;51.136;17.024;2022-09-09T14:27:28;1;0;0
70243;PMS7003;57634;51.136;17.024;2022-09-09T14:30:30;0;0;0
70243;PMS7003;57634;51.136;17.024;2022-09-09T14:33:32;0;0;0
70243;PMS7003;57634;51.136;17.024;2022-09-09T14:36:34;0;0;0
70243;PMS7003;57634;51.136;17.024;2022-09-09T14:39:36;0;0;0
70243;PMS7003;57634;51.136;17.024;2022-09-09T14:42:37;0;0;0
70243;PMS7003;57634;51.136;17.024;2022-09-09T14:45:38;0;0;0
70243;PMS7003;57634;51.136;17.024;2022-09-09T14:48:40;0;0;0
70243;PMS7003;57634;51.136;17.024;2022-09-09T14:51:41;0;0;0
70243;PMS7003;57634;51.136;17.024;2022-09-09T14:54:43;0;0;0
70243;PMS7003;57634;51.136;17.024;2022-09-09T14:58:11;0;0;0
70243;PMS7003;57634;51.136;17.024;2022-09-09T15:01:14;0;0;0
70243;PMS7003;57634;51.136;17.024;2022-09-09T15:04:17;0;0;0
70243;PMS7003;57634;51.136;17.024;2022-09-09T15:07:20;1;1;1
70243;PMS7003;57634;51.136;17.024;2022-09-09T15:10:22;1;1;0
70243;PMS7003;57634;51.136;17.024;2022-09-09T15:13:23;0;0;0
70243;PMS7003;57634;51.136;17.024;2022-09-09T15:16:27;0;0;0
70243;PMS7003;57634;51.136;17.024;2022-09-09T15:19:29;1;1;0
70243;PMS7003;57634;51.136;17.024;2022-09-09T15:22:32;0;0;0
70243;PMS7003;57634;51.136;17.024;2022-09-09T15:25:36;1;1;0
70243;PMS7003;57634;51.136;17.024;2022-09-09T15:28:38;0;0;0
70243;PMS7003;57634;51.136;17.024;2022-09-09T15:31:39;0;0;0
70243;PMS7003;57634;51.136;17.024;2022-09-09T15:35:07;0;0;0
70243;PMS7003;57634;51.136;17.024;2022-09-09T15:38:08;1;0;0
70243;PMS7003;57634;51.136;17.024;2022-09-09T15:41:10;0;0;0
70243;PMS7003;57634;51.136;17.024;2022-09-09T15:44:13;0;0;0
70243;PMS7003;57634;51.136;17.024;2022-09-09T15:47:16;0;0;0
70243;PMS7003;57634;51.136;17.024;2022-09-09T15:50:18;0;0;0
70243;PMS7003;57634;51.136;17.024;2022-09-09T15:53:19;0;0;0
70243;PMS7003;57634;51.136;17.024;2022-09-09T15:56:20;0;0;0
70243;PMS7003;57634;51.136;17.024;2022-09-09T15:59:22;0;0;0
70243;PMS7003;57634;51.136;17.024;2022-09-09T16:02:25;0;0;0
70243;PMS7003;57634;51.136;17.024;2022-09-09T16:05:26;1;1;0
70243;PMS7003;57634;51.136;17.024;2022-09-09T16:10:42;1;1;0
70243;PMS7003;57634;51.136;17.024;2022-09-09T16:13:46;1;1;0
70243;PMS7003;57634;51.136;17.024;2022-09-09T16:16:49;3;3;1
70243;PMS7003;57634;51.136;17.024;2022-09-09T16:19:50;1;1;0
70243;PMS7003;57634;51.136;17.024;2022-09-09T16:22:54;1;1;1
70243;PMS7003;57634;51.136;17.024;2022-09-09T16:25:58;1;1;1
70243;PMS7003;57634;51.136;17.024;2022-09-09T16:28:59;2;1;0
70243;PMS7003;57634;51.136;17.024;2022-09-09T16:32:03;1;0;0
70243;PMS7003;57634;51.136;17.024;2022-09-09T16:35:05;0;0;0
70243;PMS7003;57634;51.136;17.024;2022-09-09T16:38:07;1;1;0
70243;PMS7003;57634;51.136;17.024;2022-09-09T16:41:10;0;0;0
70243;PMS7003;57634;51.136;17.024;2022-09-09T16:44:39;2;1;1
70243;PMS7003;57634;51.136;17.024;2022-09-09T16:47:40;2;2;1
70243;PMS7003;57634;51.136;17.024;2022-09-09T16:50:41;1;1;0
70243;PMS7003;57634;51.136;17.024;2022-09-09T16:53:42;1;1;0
70243;PMS7003;57634;51.136;17.024;2022-09-09T16:56:45;1;1;0
70243;PMS7003;57634;51.136;17.024;2022-09-09T16:59:47;2;1;1
70243;PMS7003;57634;51.136;17.024;2022-09-09T17:02:51;1;1;1
70243;PMS7003;57634;51.136;17.024;2022-09-09T17:05:52;1;1;1
70243;PMS7003;57634;51.136;17.024;2022-09-09T17:09:00;2;2;1
70243;PMS7003;57634;51.136;17.024;2022-09-09T17:12:03;2;2;1
70243;PMS7003;57634;51.136;17.024;2022-09-09T17:15:06;3;3;2
70243;PMS7003;57634;51.136;17.024;2022-09-09T17:18:36;1;1;1
70243;PMS7003;57634;51.136;17.024;2022-09-09T17:21:38;2;1;1
70243;PMS7003;57634;51.136;17.024;2022-09-09T17:24:40;2;2;1
70243;PMS7003;57634;51.136;17.024;2022-09-09T17:27:42;1;0;0
70243;PMS7003;57634;51.136;17.024;2022-09-09T17:30:44;2;1;0
70243;PMS7003;57634;51.136;17.024;2022-09-09T17:33:49;2;2;1
70243;PMS7003;57634;51.136;17.024;2022-09-09T17:36:53;1;1;0
70243;PMS7003;57634;51.136;17.024;2022-09-09T17:39:55;1;1;1
70243;PMS7003;57634;51.136;17.024;2022-09-09T17:42:58;1;1;0
70243;PMS7003;57634;51.136;17.024;2022-09-09T17:49:36;1;1;1
70243;PMS7003;57634;51.136;17.024;2022-09-09T17:52:38;2;2;1
70243;PMS7003;57634;51.136;17.024;2022-09-09T17:55:41;3;2;1
70243;PMS7003;57634;51.136;17.024;2022-09-09T17:58:43;2;1;1
70243;PMS7003;57634;51.136;17.024;2022-09-09T18:01:46;3;3;2
70243;PMS7003;57634;51.136;17.024;2022-09-09T18:04:50;3;2;1
70243;PMS7003;57634;51.136;17.024;2022-09-09T18:07:51;2;1;1
70243;PMS7003;57634;51.136;17.024;2022-09-09T18:10:53;1;1;1
70243;PMS7003;57634;51.136;17.024;2022-09-09T18:14:00;1;1;1
70243;PMS7003;57634;51.136;17.024;2022-09-09T18:17:03;1;1;1
70243;PMS7003;57634;51.136;17.024;2022-09-09T18:20:05;2;2;1
70243;PMS7003;57634;51.136;17.024;2022-09-09T18:23:33;2;2;1
70243;PMS7003;57634;51.136;17.024;2022-09-09T18:26:37;2;2;2
70243;PMS7003;57634;51.136;17.024;2022-09-09T18:29:40;2;2;2
70243;PMS7003;57634;51.136;17.024;2022-09-09T18:32:41;2;2;2
70243;PMS7003;57634;51.136;17.024;2022-09-09T18:35:42;2;2;2
70243;PMS7003;57634;51.136;17.024;2022-09-09T18:38:43;3;3;3
70243;PMS7003;57634;51.136;17.024;2022-09-09T18:41:46;3;3;3
70243;PMS7003;57634;51.136;17.024;2022-09-09T18:44:51;5;3;2
70243;PMS7003;57634;51.136;17.024;2022-09-09T18:47:52;3;2;2
70243;PMS7003;57634;51.136;17.024;2022-09-09T18:50:54;2;2;1
70243;PMS7003;57634;51.136;17.024;2022-09-09T18:57:32;2;2;2
70243;PMS7003;57634;51.136;17.024;2022-09-09T19:00:35;1;1;1
70243;PMS7003;57634;51.136;17.024;2022-09-09T19:03:36;3;2;1
70243;PMS7003;57634;51.136;17.024;2022-09-09T19:06:39;2;2;1
70243;PMS7003;57634;51.136;17.024;2022-09-09T19:09:42;3;2;2
70243;PMS7003;57634;51.136;17.024;2022-09-09T19:12:44;2;2;2
70243;PMS7003;57634;51.136;17.024;2022-09-09T19:15:45;2;2;1
70243;PMS7003;57634;51.136;17.024;2022-09-09T19:18:46;1;1;0
70243;PMS7003;57634;51.136;17.024;2022-09-09T19:21:48;1;1;0
70243;PMS7003;57634;51.136;17.024;2022-09-09T19:24:51;1;1;1
70243;PMS7003;57634;51.136;17.024;2022-09-09T19:27:52;1;1;0
70243;PMS7003;57634;51.136;17.024;2022-09-09T19:30:54;1;1;1
70243;PMS7003;57634;51.136;17.024;2022-09-09T19:33:56;1;1;0
70243;PMS7003;57634;51.136;17.024;2022-09-09T19:37:23;2;2;1
70243;PMS7003;57634;51.136;17.024;2022-09-09T19:40:24;1;1;1
70243;PMS7003;57634;51.136;17.024;2022-09-09T19:43:26;1;1;1
70243;PMS7003;57634;51.136;17.024;2022-09-09T19:46:29;2;2;1
70243;PMS7003;57634;51.136;17.024;2022-09-09T19:49:32;1;1;1
70243;PMS7003;57634;51.136;17.024;2022-09-09T19:52:36;3;2;1
70243;PMS7003;57634;51.136;17.024;2022-09-09T19:55:38;3;3;1
70243;PMS7003;57634;51.136;17.024;2022-09-09T19:58:40;3;3;3
70243;PMS7003;57634;51.136;17.024;2022-09-09T20:01:45;1;1;1
70243;PMS7003;57634;51.136;17.024;2022-09-09T20:04:47;1;1;0
70243;PMS7003;57634;51.136;17.024;2022-09-09T20:07:48;2;2;2
70243;PMS7003;57634;51.136;17.024;2022-09-09T20:10:50;1;1;0
70243;PMS7003;57634;51.136;17.024;2022-09-09T20:14:18;0;0;0
70243;PMS7003;57634;51.136;17.024;2022-09-09T20:17:19;2;1;1
70243;PMS7003;57634;51.136;17.024;2022-09-09T20:20:21;1;1;0
70243;PMS7003;57634;51.136;17.024;2022-09-09T20:23:22;1;0;0
70243;PMS7003;57634;51.136;17.024;2022-09-09T20:26:23;0;0;0
70243;PMS7003;57634;51.136;17.024;2022-09-09T20:29:27;1;1;1
70243;PMS7003;57634;51.136;17.024;2022-09-09T20:32:29;1;1;0
70243;PMS7003;57634;51.136;17.024;2022-09-09T20:35:30;1;1;0
70243;PMS7003;57634;51.136;17.024;2022-09-09T20:38:33;1;1;0
70243;PMS7003;57634;51.136;17.024;2022-09-09T20:41:35;1;0;0
70243;PMS7003;57634;51.136;17.024;2022-09-09T20:44:37;1;0;0
70243;PMS7003;57634;51.136;17.024;2022-09-09T20:47:38;2;1;1
70243;PMS7003;57634;51.136;17.024;2022-09-09T20:50:39;4;4;3
70243;PMS7003;57634;51.136;17.024;2022-09-09T20:54:09;7;6;4
70243;PMS7003;57634;51.136;17.024;2022-09-09T20:57:14;4;4;3
70243;PMS7003;57634;51.136;17.024;2022-09-09T21:00:21;13;12;9
70243;PMS7003;57634;51.136;17.024;2022-09-09T21:03:23;6;6;5
70243;PMS7003;57634;51.136;17.024;2022-09-09T21:06:26;4;3;2
70243;PMS7003;57634;51.136;17.024;2022-09-09T21:09:27;1;1;1
70243;PMS7003;57634;51.136;17.024;2022-09-09T21:12:28;1;1;0
70243;PMS7003;57634;51.136;17.024;2022-09-09T21:15:30;1;1;0
70243;PMS7003;57634;51.136;17.024;2022-09-09T21:18:32;0;0;0
70243;PMS7003;57634;51.136;17.024;2022-09-09T21:21:34;1;1;0
70243;PMS7003;57634;51.136;17.024;2022-09-09T21:24:37;0;0;0
70243;PMS7003;57634;51.136;17.024;2022-09-09T21:28:05;0;0;0
70243;PMS7003;57634;51.136;17.024;2022-09-09T21:31:10;0;0;0
70243;PMS7003;57634;51.136;17.024;2022-09-09T21:34:14;2;0;0
70243;PMS7003;57634;51.136;17.024;2022-09-09T21:37:17;0;0;0
70243;PMS7003;57634;51.136;17.024;2022-09-09T21:40:19;0;0;0
70243;PMS7003;57634;51.136;17.024;2022-09-09T21:43:20;0;0;0
70243;PMS7003;57634;51.136;17.024;2022-09-09T21:46:23;0;0;0
70243;PMS7003;57634;51.136;17.024;2022-09-09T21:49:27;0;0;0
70243;PMS7003;57634;51.136;17.024;2022-09-09T21:52:28;0;0;0
70243;PMS7003;57634;51.136;17.024;2022-09-09T21:55:33;0;0;0
70243;PMS7003;57634;51.136;17.024;2022-09-09T21:59:07;0;0;0
70243;PMS7003;57634;51.136;17.024;2022-09-09T22:02:09;0;0;0
70243;PMS7003;57634;51.136;17.024;2022-09-09T22:05:10;0;0;0
70243;PMS7003;57634;51.136;17.024;2022-09-09T22:08:13;0;0;0
70243;PMS7003;57634;51.136;17.024;2022-09-09T22:11:18;0;0;0
70243;PMS7003;57634;51.136;17.024;2022-09-09T22:14:22;0;0;0
70243;PMS7003;57634;51.136;17.024;2022-09-09T22:17:24;1;1;0
70243;PMS7003;57634;51.136;17.024;2022-09-09T22:20:25;1;1;1
70243;PMS7003;57634;51.136;17.024;2022-09-09T22:23:26;1;0;0
70243;PMS7003;57634;51.136;17.024;2022-09-09T22:26:31;1;1;1
70243;PMS7003;57634;51.136;17.024;2022-09-09T22:29:34;1;1;1
70243;PMS7003;57634;51.136;17.024;2022-09-09T22:32:35;1;1;1
70243;PMS7003;57634;51.136;17.024;2022-09-09T22:36:02;2;1;1
70243;PMS7003;57634;51.136;17.024;2022-09-09T22:39:05;2;1;0
70243;PMS7003;57634;51.136;17.024;2022-09-09T22:42:07;1;1;0
70243;PMS7003;57634;51.136;17.024;2022-09-09T22:45:09;0;0;0
70243;PMS7003;57634;51.136;17.024;2022-09-09T22:48:11;0;0;0
70243;PMS7003;57634;51.136;17.024;2022-09-09T22:51:14;2;1;0
70243;PMS7003;57634;51.136;17.024;2022-09-09T22:54:16;0;0;0
70243;PMS7003;57634;51.136;17.024;2022-09-09T22:57:24;1;1;0
70243;PMS7003;57634;51.136;17.024;2022-09-09T23:00:26;0;0;0
70243;PMS7003;57634;51.136;17.024;2022-09-09T23:03:29;1;0;0